Algona, Iowa
Current Conditions -  °F | °C
As of 10:55 PM on Sunday 23 Nov 2014 (Local Time) from KAXA Reporting Station
Overcast Overcast  
Wind Chill: 19°   Ceiling: 2300
Heat Index: 32°   Visibility: 10mi
Dew Point: 28°   Wind: 23mph
Humidity: 87%   Direction: 330°NNW
Pressure: 29.4"   Gusts: 31mph
Location:  43.07°N, 94.23°W
Report Text: KAXA 240455Z AUTO 33020G27KT 10SM OVC023 00/M02 A2940 RMK AO2
Loading
Personal Weather Stations






























Interactive Weather Map New forecast layout! Learn more

10-Day Weather Forecast

Advertisements
Track Severe Weather on mobile